sensor_id;sensor_type;location;lat;lon;timestamp;pressure;altitude;pressure_sealevel;temperature;humidity
74716;BME280;63234;37.558;127.058;2023-07-29T00:01:19;99548.19;;;18.80;87.33
74716;BME280;63234;37.558;127.058;2023-07-29T00:03:44;99552.31;;;18.97;87.01
74716;BME280;63234;37.558;127.058;2023-07-29T00:06:10;99553.63;;;18.99;86.79
74716;BME280;63234;37.558;127.058;2023-07-29T00:08:36;99563.56;;;18.80;86.98
74716;BME280;63234;37.558;127.058;2023-07-29T00:11:03;99556.13;;;18.72;87.79
74716;BME280;63234;37.558;127.058;2023-07-29T00:13:29;99553.88;;;18.79;87.12
74716;BME280;63234;37.558;127.058;2023-07-29T00:15:55;99551.31;;;18.69;87.81
74716;BME280;63234;37.558;127.058;2023-07-29T00:18:22;99551.25;;;18.74;87.65
74716;BME280;63234;37.558;127.058;2023-07-29T00:20:49;99539.22;;;18.66;87.87
74716;BME280;63234;37.558;127.058;2023-07-29T00:23:17;99544.28;;;18.68;88.25
74716;BME280;63234;37.558;127.058;2023-07-29T00:25:45;99545.50;;;18.80;87.19
74716;BME280;63234;37.558;127.058;2023-07-29T00:28:12;99538.13;;;18.67;87.60
74716;BME280;63234;37.558;127.058;2023-07-29T00:30:38;99542.97;;;18.65;88.00
74716;BME280;63234;37.558;127.058;2023-07-29T00:33:04;99535.16;;;18.69;87.73
74716;BME280;63234;37.558;127.058;2023-07-29T00:35:30;99527.88;;;18.69;88.06
74716;BME280;63234;37.558;127.058;2023-07-29T00:37:56;99533.06;;;18.85;87.10
74716;BME280;63234;37.558;127.058;2023-07-29T00:40:22;99524.38;;;18.69;87.68
74716;BME280;63234;37.558;127.058;2023-07-29T00:42:49;99519.19;;;18.72;87.89
74716;BME280;63234;37.558;127.058;2023-07-29T00:45:15;99528.63;;;18.75;87.61
74716;BME280;63234;37.558;127.058;2023-07-29T00:47:42;99520.28;;;18.71;87.31
74716;BME280;63234;37.558;127.058;2023-07-29T00:50:12;99525.06;;;18.79;87.27
74716;BME280;63234;37.558;127.058;2023-07-29T00:52:39;99530.44;;;18.55;87.98
74716;BME280;63234;37.558;127.058;2023-07-29T00:55:06;99516.94;;;18.61;88.07
74716;BME280;63234;37.558;127.058;2023-07-29T00:57:33;99523.25;;;18.75;87.32
74716;BME280;63234;37.558;127.058;2023-07-29T01:00:00;99527.00;;;18.74;87.62
74716;BME280;63234;37.558;127.058;2023-07-29T01:02:27;99518.50;;;18.86;86.99
74716;BME280;63234;37.558;127.058;2023-07-29T01:04:57;99508.09;;;18.79;87.27
74716;BME280;63234;37.558;127.058;2023-07-29T01:10:15;99506.34;;;18.45;88.14
74716;BME280;63234;37.558;127.058;2023-07-29T01:12:55;99511.75;;;18.64;87.36
74716;BME280;63234;37.558;127.058;2023-07-29T01:17:55;99506.75;;;18.57;87.85
74716;BME280;63234;37.558;127.058;2023-07-29T01:20:24;99495.53;;;18.50;87.89
74716;BME280;63234;37.558;127.058;2023-07-29T01:22:51;99507.91;;;18.70;87.43
74716;BME280;63234;37.558;127.058;2023-07-29T01:25:17;99501.22;;;18.68;86.81
74716;BME280;63234;37.558;127.058;2023-07-29T01:27:45;99504.09;;;18.52;87.29
74716;BME280;63234;37.558;127.058;2023-07-29T01:30:11;99500.66;;;18.47;87.85
74716;BME280;63234;37.558;127.058;2023-07-29T01:37:59;99498.72;;;18.52;87.99
74716;BME280;63234;37.558;127.058;2023-07-29T01:40:28;99509.66;;;18.61;87.97
74716;BME280;63234;37.558;127.058;2023-07-29T01:42:54;99509.69;;;18.80;87.13
74716;BME280;63234;37.558;127.058;2023-07-29T01:45:23;99497.94;;;18.71;87.04
74716;BME280;63234;37.558;127.058;2023-07-29T01:47:51;99498.59;;;18.63;87.21
74716;BME280;63234;37.558;127.058;2023-07-29T01:50:17;99487.84;;;18.63;87.66
74716;BME280;63234;37.558;127.058;2023-07-29T01:52:43;99491.81;;;18.65;87.48
74716;BME280;63234;37.558;127.058;2023-07-29T01:55:09;99482.94;;;18.65;87.07
74716;BME280;63234;37.558;127.058;2023-07-29T01:57:35;99485.19;;;18.57;86.80
74716;BME280;63234;37.558;127.058;2023-07-29T02:00:01;99494.47;;;18.46;87.06
74716;BME280;63234;37.558;127.058;2023-07-29T02:02:27;99494.00;;;18.63;87.25
74716;BME280;63234;37.558;127.058;2023-07-29T02:04:53;99488.75;;;18.53;86.82
74716;BME280;63234;37.558;127.058;2023-07-29T02:07:21;99491.91;;;18.60;87.00
74716;BME280;63234;37.558;127.058;2023-07-29T02:09:47;99492.91;;;18.64;86.89
74716;BME280;63234;37.558;127.058;2023-07-29T02:12:13;99492.97;;;18.59;86.31
74716;BME280;63234;37.558;127.058;2023-07-29T02:14:39;99488.66;;;18.39;87.35
74716;BME280;63234;37.558;127.058;2023-07-29T02:17:05;99481.69;;;18.38;87.55
74716;BME280;63234;37.558;127.058;2023-07-29T02:19:31;99490.19;;;18.45;87.18
74716;BME280;63234;37.558;127.058;2023-07-29T02:21:57;99489.19;;;18.41;87.16
74716;BME280;63234;37.558;127.058;2023-07-29T02:24:23;99477.22;;;18.28;87.63
74716;BME280;63234;37.558;127.058;2023-07-29T02:26:49;99487.00;;;18.43;87.33
74716;BME280;63234;37.558;127.058;2023-07-29T02:29:15;99478.56;;;18.50;86.73
74716;BME280;63234;37.558;127.058;2023-07-29T02:31:40;99494.94;;;18.53;86.57
74716;BME280;63234;37.558;127.058;2023-07-29T02:34:09;99497.06;;;18.56;86.98
74716;BME280;63234;37.558;127.058;2023-07-29T02:36:35;99478.91;;;18.43;87.76
74716;BME280;63234;37.558;127.058;2023-07-29T02:39:01;99475.63;;;18.46;87.48
74716;BME280;63234;37.558;127.058;2023-07-29T02:41:27;99475.63;;;18.27;88.55
74716;BME280;63234;37.558;127.058;2023-07-29T02:43:56;99460.63;;;18.21;89.30
74716;BME280;63234;37.558;127.058;2023-07-29T02:46:22;99459.91;;;18.34;89.23
74716;BME280;63234;37.558;127.058;2023-07-29T02:48:48;99460.44;;;18.37;89.09
74716;BME280;63234;37.558;127.058;2023-07-29T02:51:14;99462.66;;;18.53;88.70
74716;BME280;63234;37.558;127.058;2023-07-29T02:53:40;99454.09;;;18.46;88.47
74716;BME280;63234;37.558;127.058;2023-07-29T02:56:06;99448.34;;;18.34;88.47
74716;BME280;63234;37.558;127.058;2023-07-29T02:58:35;99451.56;;;18.36;88.82
74716;BME280;63234;37.558;127.058;2023-07-29T03:01:03;99462.69;;;18.29;89.03
74716;BME280;63234;37.558;127.058;2023-07-29T03:03:30;99477.91;;;18.39;88.39
74716;BME280;63234;37.558;127.058;2023-07-29T03:08:26;99480.59;;;17.91;91.62
74716;BME280;63234;37.558;127.058;2023-07-29T03:10:52;99477.22;;;17.80;92.65
74716;BME280;63234;37.558;127.058;2023-07-29T03:13:18;99466.47;;;17.75;93.17
74716;BME280;63234;37.558;127.058;2023-07-29T03:15:44;99465.47;;;17.71;93.43
74716;BME280;63234;37.558;127.058;2023-07-29T03:18:10;99460.16;;;17.61;93.69
74716;BME280;63234;37.558;127.058;2023-07-29T03:20:36;99467.09;;;17.67;93.91
74716;BME280;63234;37.558;127.058;2023-07-29T03:23:02;99459.38;;;17.60;93.81
74716;BME280;63234;37.558;127.058;2023-07-29T03:25:28;99447.47;;;17.66;93.86
74716;BME280;63234;37.558;127.058;2023-07-29T03:27:54;99456.56;;;17.71;93.71
74716;BME280;63234;37.558;127.058;2023-07-29T03:30:21;99464.06;;;17.79;93.36
74716;BME280;63234;37.558;127.058;2023-07-29T03:32:48;99456.91;;;17.64;93.67
74716;BME280;63234;37.558;127.058;2023-07-29T03:35:14;99456.06;;;17.69;93.85
74716;BME280;63234;37.558;127.058;2023-07-29T03:37:41;99459.19;;;17.81;93.11
74716;BME280;63234;37.558;127.058;2023-07-29T03:40:07;99456.16;;;17.87;93.18
74716;BME280;63234;37.558;127.058;2023-07-29T03:42:35;99458.69;;;17.79;93.14
74716;BME280;63234;37.558;127.058;2023-07-29T03:45:01;99447.06;;;17.83;93.15
74716;BME280;63234;37.558;127.058;2023-07-29T03:47:27;99449.81;;;17.73;93.65
74716;BME280;63234;37.558;127.058;2023-07-29T03:49:53;99442.53;;;17.79;93.34
74716;BME280;63234;37.558;127.058;2023-07-29T03:52:19;99436.09;;;17.75;93.24
74716;BME280;63234;37.558;127.058;2023-07-29T03:54:45;99434.84;;;17.67;93.17
74716;BME280;63234;37.558;127.058;2023-07-29T03:57:11;99428.81;;;17.80;92.89
74716;BME280;63234;37.558;127.058;2023-07-29T03:59:37;99418.34;;;17.79;92.79
74716;BME280;63234;37.558;127.058;2023-07-29T04:02:03;99419.88;;;17.85;92.60
74716;BME280;63234;37.558;127.058;2023-07-29T04:04:29;99423.66;;;17.84;92.59
74716;BME280;63234;37.558;127.058;2023-07-29T04:06:55;99428.53;;;17.82;92.72
74716;BME280;63234;37.558;127.058;2023-07-29T04:09:21;99440.94;;;17.78;92.82
74716;BME280;63234;37.558;127.058;2023-07-29T04:11:47;99440.25;;;17.91;92.30
74716;BME280;63234;37.558;127.058;2023-07-29T04:14:13;99425.97;;;17.66;92.67
74716;BME280;63234;37.558;127.058;2023-07-29T04:16:39;99441.53;;;17.70;92.64
74716;BME280;63234;37.558;127.058;2023-07-29T04:19:05;99444.97;;;17.75;92.72
74716;BME280;63234;37.558;127.058;2023-07-29T04:21:31;99444.66;;;17.77;92.26
74716;BME280;63234;37.558;127.058;2023-07-29T04:23:56;99441.13;;;17.86;92.33
74716;BME280;63234;37.558;127.058;2023-07-29T04:26:22;99440.78;;;17.93;92.17
74716;BME280;63234;37.558;127.058;2023-07-29T04:28:48;99457.56;;;17.80;92.50
74716;BME280;63234;37.558;127.058;2023-07-29T04:31:15;99458.41;;;17.75;92.51
74716;BME280;63234;37.558;127.058;2023-07-29T04:33:41;99459.69;;;17.83;91.92
74716;BME280;63234;37.558;127.058;2023-07-29T04:36:07;99459.59;;;17.93;91.77
74716;BME280;63234;37.558;127.058;2023-07-29T04:38:33;99457.75;;;17.88;91.83
74716;BME280;63234;37.558;127.058;2023-07-29T04:40:59;99457.09;;;18.02;91.58
74716;BME280;63234;37.558;127.058;2023-07-29T04:43:31;99466.13;;;17.87;91.66
74716;BME280;63234;37.558;127.058;2023-07-29T04:45:57;99456.97;;;17.88;91.46
74716;BME280;63234;37.558;127.058;2023-07-29T04:48:23;99479.56;;;17.87;91.84
74716;BME280;63234;37.558;127.058;2023-07-29T04:50:49;99466.97;;;17.82;91.27
74716;BME280;63234;37.558;127.058;2023-07-29T04:53:15;99465.59;;;17.85;91.23
74716;BME280;63234;37.558;127.058;2023-07-29T04:55:42;99489.81;;;17.85;91.25
74716;BME280;63234;37.558;127.058;2023-07-29T04:58:10;99484.19;;;17.81;91.76
74716;BME280;63234;37.558;127.058;2023-07-29T05:00:37;99487.75;;;18.01;90.94
74716;BME280;63234;37.558;127.058;2023-07-29T05:03:02;99484.16;;;17.86;91.21
74716;BME280;63234;37.558;127.058;2023-07-29T05:05:28;99491.09;;;17.93;91.17
74716;BME280;63234;37.558;127.058;2023-07-29T05:07:54;99491.09;;;17.93;91.17
74716;BME280;63234;37.558;127.058;2023-07-29T05:10:20;99494.50;;;17.98;90.66
74716;BME280;63234;37.558;127.058;2023-07-29T05:12:46;99496.22;;;17.89;91.18
74716;BME280;63234;37.558;127.058;2023-07-29T05:15:12;99496.13;;;17.99;91.14
74716;BME280;63234;37.558;127.058;2023-07-29T05:17:38;99488.44;;;17.87;90.71
74716;BME280;63234;37.558;127.058;2023-07-29T05:20:04;99497.84;;;17.90;90.74
74716;BME280;63234;37.558;127.058;2023-07-29T05:22:30;99492.03;;;17.78;90.89
74716;BME280;63234;37.558;127.058;2023-07-29T05:24:56;99496.28;;;17.84;90.61
74716;BME280;63234;37.558;127.058;2023-07-29T05:27:22;99500.44;;;17.95;90.73
74716;BME280;63234;37.558;127.058;2023-07-29T05:29:48;99498.09;;;17.88;90.81
74716;BME280;63234;37.558;127.058;2023-07-29T05:32:14;99502.06;;;17.96;90.55
74716;BME280;63234;37.558;127.058;2023-07-29T05:34:40;99505.50;;;18.02;90.39
74716;BME280;63234;37.558;127.058;2023-07-29T05:37:06;99506.41;;;17.92;90.63
74716;BME280;63234;37.558;127.058;2023-07-29T05:39:32;99506.66;;;17.96;90.83
74716;BME280;63234;37.558;127.058;2023-07-29T05:41:58;99512.31;;;17.94;90.84
74716;BME280;63234;37.558;127.058;2023-07-29T05:44:24;99515.53;;;17.96;90.17
74716;BME280;63234;37.558;127.058;2023-07-29T05:46:50;99513.84;;;18.00;90.54
74716;BME280;63234;37.558;127.058;2023-07-29T05:49:16;99518.13;;;18.01;90.65
74716;BME280;63234;37.558;127.058;2023-07-29T05:51:42;99526.97;;;18.07;90.14
74716;BME280;63234;37.558;127.058;2023-07-29T05:54:09;99526.38;;;18.10;90.37
74716;BME280;63234;37.558;127.058;2023-07-29T05:56:35;99516.28;;;18.02;90.93
74716;BME280;63234;37.558;127.058;2023-07-29T05:59:00;99527.31;;;18.00;90.80
74716;BME280;63234;37.558;127.058;2023-07-29T06:01:26;99526.78;;;17.98;90.98
74716;BME280;63234;37.558;127.058;2023-07-29T06:03:52;99524.81;;;18.09;90.62
74716;BME280;63234;37.558;127.058;2023-07-29T06:06:18;99521.88;;;18.05;90.85
74716;BME280;63234;37.558;127.058;2023-07-29T06:08:44;99518.09;;;18.06;90.64
74716;BME280;63234;37.558;127.058;2023-07-29T06:11:10;99523.88;;;18.19;90.49
74716;BME280;63234;37.558;127.058;2023-07-29T06:13:36;99531.50;;;18.11;90.24
74716;BME280;63234;37.558;127.058;2023-07-29T06:16:02;99525.94;;;18.03;90.45
74716;BME280;63234;37.558;127.058;2023-07-29T06:18:28;99524.28;;;18.07;nan
74716;BME280;63234;37.558;127.058;2023-07-29T06:20:54;99537.44;;;18.08;90.83
74716;BME280;63234;37.558;127.058;2023-07-29T06:23:20;99528.50;;;18.13;91.07
74716;BME280;63234;37.558;127.058;2023-07-29T06:25:46;99539.22;;;18.18;91.08
74716;BME280;63234;37.558;127.058;2023-07-29T06:28:11;99542.44;;;18.20;90.96
74716;BME280;63234;37.558;127.058;2023-07-29T06:30:37;99550.03;;;18.13;91.24
74716;BME280;63234;37.558;127.058;2023-07-29T06:33:03;99539.22;;;18.18;90.63
74716;BME280;63234;37.558;127.058;2023-07-29T06:35:29;99542.66;;;18.24;90.82
74716;BME280;63234;37.558;127.058;2023-07-29T06:37:55;99536.53;;;18.42;90.23
74716;BME280;63234;37.558;127.058;2023-07-29T06:40:21;99547.25;;;18.47;90.19
74716;BME280;63234;37.558;127.058;2023-07-29T06:42:47;99537.56;;;18.46;89.34
74716;BME280;63234;37.558;127.058;2023-07-29T06:45:13;99539.63;;;18.54;89.73
74716;BME280;63234;37.558;127.058;2023-07-29T06:47:41;99528.28;;;18.57;89.38
74716;BME280;63234;37.558;127.058;2023-07-29T06:50:07;99537.41;;;18.80;89.62
74716;BME280;63234;37.558;127.058;2023-07-29T06:52:33;99536.84;;;18.84;89.41
74716;BME280;63234;37.558;127.058;2023-07-29T06:54:58;99527.91;;;18.88;88.86
74716;BME280;63234;37.558;127.058;2023-07-29T06:57:24;99529.28;;;19.05;88.52
74716;BME280;63234;37.558;127.058;2023-07-29T06:59:50;99520.53;;;19.13;88.56
74716;BME280;63234;37.558;127.058;2023-07-29T07:02:16;99522.16;;;19.33;88.13
74716;BME280;63234;37.558;127.058;2023-07-29T07:04:42;99531.44;;;19.40;87.00
74716;BME280;63234;37.558;127.058;2023-07-29T07:07:08;99540.47;;;19.49;86.72
74716;BME280;63234;37.558;127.058;2023-07-29T07:09:34;99547.75;;;19.49;85.80
74716;BME280;63234;37.558;127.058;2023-07-29T07:12:00;99547.75;;;19.49;86.03
74716;BME280;63234;37.558;127.058;2023-07-29T07:14:25;99545.94;;;19.44;86.27
74716;BME280;63234;37.558;127.058;2023-07-29T07:16:51;99543.16;;;19.49;85.80
74716;BME280;63234;37.558;127.058;2023-07-29T07:19:17;99542.34;;;19.49;85.81
74716;BME280;63234;37.558;127.058;2023-07-29T07:21:43;99539.53;;;19.40;86.03
74716;BME280;63234;37.558;127.058;2023-07-29T07:24:09;99535.00;;;19.55;85.50
74716;BME280;63234;37.558;127.058;2023-07-29T07:26:35;99532.50;;;19.58;85.80
74716;BME280;63234;37.558;127.058;2023-07-29T07:29:01;99530.47;;;19.69;84.86
74716;BME280;63234;37.558;127.058;2023-07-29T07:31:27;99522.47;;;19.78;84.09
74716;BME280;63234;37.558;127.058;2023-07-29T07:33:53;99526.97;;;19.68;84.36
74716;BME280;63234;37.558;127.058;2023-07-29T07:36:18;99534.19;;;19.87;84.86
74716;BME280;63234;37.558;127.058;2023-07-29T07:38:44;99540.00;;;19.94;84.03
74716;BME280;63234;37.558;127.058;2023-07-29T07:41:10;99545.53;;;20.03;84.09
74716;BME280;63234;37.558;127.058;2023-07-29T07:43:36;99541.22;;;20.02;84.26
74716;BME280;63234;37.558;127.058;2023-07-29T07:46:03;99541.13;;;20.07;84.54
74716;BME280;63234;37.558;127.058;2023-07-29T07:48:29;99548.75;;;20.19;84.75
74716;BME280;63234;37.558;127.058;2023-07-29T07:50:55;99540.94;;;20.17;83.65
74716;BME280;63234;37.558;127.058;2023-07-29T07:53:21;99532.75;;;20.22;83.61
74716;BME280;63234;37.558;127.058;2023-07-29T07:55:46;99531.16;;;20.21;83.10
74716;BME280;63234;37.558;127.058;2023-07-29T07:58:12;99541.75;;;20.31;84.03
74716;BME280;63234;37.558;127.058;2023-07-29T08:00:38;99528.84;;;20.28;83.01
74716;BME280;63234;37.558;127.058;2023-07-29T08:03:04;99536.34;;;20.45;83.06
74716;BME280;63234;37.558;127.058;2023-07-29T08:05:30;99537.94;;;20.60;82.93
74716;BME280;63234;37.558;127.058;2023-07-29T08:07:56;99541.06;;;20.67;82.14
74716;BME280;63234;37.558;127.058;2023-07-29T08:10:22;99536.13;;;20.83;80.57
74716;BME280;63234;37.558;127.058;2023-07-29T08:12:48;99546.59;;;20.98;81.33
74716;BME280;63234;37.558;127.058;2023-07-29T08:15:14;99549.53;;;20.88;81.95
74716;BME280;63234;37.558;127.058;2023-07-29T08:17:40;99535.94;;;20.79;81.72
74716;BME280;63234;37.558;127.058;2023-07-29T08:20:06;99553.72;;;20.80;80.56
74716;BME280;63234;37.558;127.058;2023-07-29T08:22:32;99557.53;;;20.79;78.89
74716;BME280;63234;37.558;127.058;2023-07-29T08:24:58;99552.34;;;20.69;78.90
74716;BME280;63234;37.558;127.058;2023-07-29T08:27:23;99553.44;;;20.68;80.23
74716;BME280;63234;37.558;127.058;2023-07-29T08:29:49;99565.78;;;20.60;81.30
74716;BME280;63234;37.558;127.058;2023-07-29T08:32:15;99569.28;;;20.61;81.06
74716;BME280;63234;37.558;127.058;2023-07-29T08:34:44;99559.25;;;20.61;80.32
74716;BME280;63234;37.558;127.058;2023-07-29T08:37:10;99556.84;;;20.46;80.58
74716;BME280;63234;37.558;127.058;2023-07-29T08:39:36;99568.94;;;20.49;81.58
74716;BME280;63234;37.558;127.058;2023-07-29T08:42:04;99575.97;;;20.36;82.10
74716;BME280;63234;37.558;127.058;2023-07-29T08:44:40;99584.72;;;20.42;82.49
74716;BME280;63234;37.558;127.058;2023-07-29T08:47:07;99583.13;;;20.27;83.67
74716;BME280;63234;37.558;127.058;2023-07-29T08:49:33;99593.91;;;20.13;84.53
74716;BME280;63234;37.558;127.058;2023-07-29T08:51:59;99591.09;;;20.04;85.80
74716;BME280;63234;37.558;127.058;2023-07-29T08:54:26;99575.31;;;20.11;85.51
74716;BME280;63234;37.558;127.058;2023-07-29T08:56:52;99597.00;;;20.06;85.95
74716;BME280;63234;37.558;127.058;2023-07-29T08:59:19;99603.13;;;20.12;86.17
74716;BME280;63234;37.558;127.058;2023-07-29T09:01:45;99593.50;;;20.06;86.13
74716;BME280;63234;37.558;127.058;2023-07-29T09:04:12;99574.63;;;20.06;84.95
74716;BME280;63234;37.558;127.058;2023-07-29T09:06:39;99571.25;;;20.28;84.30
74716;BME280;63234;37.558;127.058;2023-07-29T09:09:07;99566.72;;;20.23;84.19
74716;BME280;63234;37.558;127.058;2023-07-29T09:11:33;99567.34;;;20.34;83.65
74716;BME280;63234;37.558;127.058;2023-07-29T09:13:59;99565.44;;;20.34;82.83
74716;BME280;63234;37.558;127.058;2023-07-29T09:16:26;99570.63;;;20.45;83.48
74716;BME280;63234;37.558;127.058;2023-07-29T09:18:52;99573.66;;;20.57;82.75
74716;BME280;63234;37.558;127.058;2023-07-29T09:21:27;99558.94;;;20.63;82.35
74716;BME280;63234;37.558;127.058;2023-07-29T09:23:55;99570.06;;;20.61;81.16
74716;BME280;63234;37.558;127.058;2023-07-29T09:26:28;99568.16;;;20.62;80.45
74716;BME280;63234;37.558;127.058;2023-07-29T09:28:58;99565.25;;;20.72;79.55
74716;BME280;63234;37.558;127.058;2023-07-29T09:31:26;99576.56;;;20.88;79.47
74716;BME280;63234;37.558;127.058;2023-07-29T09:34:03;99581.53;;;20.95;78.31
74716;BME280;63234;37.558;127.058;2023-07-29T09:36:32;99581.13;;;21.01;77.53
74716;BME280;63234;37.558;127.058;2023-07-29T09:38:58;99582.41;;;21.04;75.41
74716;BME280;63234;37.558;127.058;2023-07-29T09:41:25;99576.31;;;20.98;72.95
74716;BME280;63234;37.558;127.058;2023-07-29T09:43:59;99578.09;;;21.17;74.13
74716;BME280;63234;37.558;127.058;2023-07-29T09:46:33;99587.00;;;21.17;73.97
74716;BME280;63234;37.558;127.058;2023-07-29T09:49:02;99582.44;;;21.26;73.17
74716;BME280;63234;37.558;127.058;2023-07-29T09:51:28;99579.75;;;21.26;71.95
74716;BME280;63234;37.558;127.058;2023-07-29T09:53:55;99571.81;;;21.30;71.40
74716;BME280;63234;37.558;127.058;2023-07-29T09:56:26;99587.06;;;21.40;71.68
74716;BME280;63234;37.558;127.058;2023-07-29T09:58:53;99596.84;;;21.49;70.42
74716;BME280;63234;37.558;127.058;2023-07-29T10:01:21;99587.31;;;21.52;69.74
74716;BME280;63234;37.558;127.058;2023-07-29T10:03:47;99600.44;;;21.45;69.57
74716;BME280;63234;37.558;127.058;2023-07-29T10:06:14;99595.09;;;21.53;70.13
74716;BME280;63234;37.558;127.058;2023-07-29T10:08:42;99590.56;;;21.63;69.80
74716;BME280;63234;37.558;127.058;2023-07-29T10:11:10;99585.94;;;21.63;68.65
74716;BME280;63234;37.558;127.058;2023-07-29T10:13:38;99581.88;;;21.74;68.48
74716;BME280;63234;37.558;127.058;2023-07-29T10:16:04;99584.44;;;22.02;68.19
74716;BME280;63234;37.558;127.058;2023-07-29T10:18:32;99588.84;;;22.20;67.05
74716;BME280;63234;37.558;127.058;2023-07-29T10:21:00;99573.16;;;22.31;66.67
74716;BME280;63234;37.558;127.058;2023-07-29T10:23:27;99579.16;;;22.19;66.60
74716;BME280;63234;37.558;127.058;2023-07-29T10:26:05;99584.16;;;22.35;66.38
74716;BME280;63234;37.558;127.058;2023-07-29T10:28:39;99582.91;;;22.41;66.11
74716;BME280;63234;37.558;127.058;2023-07-29T10:31:06;99587.41;;;22.54;66.48
74716;BME280;63234;37.558;127.058;2023-07-29T10:33:34;99582.59;;;22.51;66.11
74716;BME280;63234;37.558;127.058;2023-07-29T10:36:01;99583.59;;;22.55;66.15
74716;BME280;63234;37.558;127.058;2023-07-29T10:38:28;99576.47;;;22.68;66.10
74716;BME280;63234;37.558;127.058;2023-07-29T10:40:56;99581.88;;;22.68;66.03
74716;BME280;63234;37.558;127.058;2023-07-29T10:43:36;99583.75;;;22.59;67.21
74716;BME280;63234;37.558;127.058;2023-07-29T10:46:17;99580.25;;;22.58;66.83
74716;BME280;63234;37.558;127.058;2023-07-29T10:48:51;99581.41;;;22.75;65.15
74716;BME280;63234;37.558;127.058;2023-07-29T10:51:34;99585.81;;;22.53;65.71
74716;BME280;63234;37.558;127.058;2023-07-29T10:54:10;99577.47;;;22.41;66.22
74716;BME280;63234;37.558;127.058;2023-07-29T10:56:40;99581.97;;;22.54;65.84
74716;BME280;63234;37.558;127.058;2023-07-29T11:01:57;99568.59;;;22.49;66.08
74716;BME280;63234;37.558;127.058;2023-07-29T11:04:28;99578.84;;;22.70;64.47
74716;BME280;63234;37.558;127.058;2023-07-29T11:12:37;99581.00;;;23.25;62.15
74716;BME280;63234;37.558;127.058;2023-07-29T11:17:40;99579.28;;;23.29;61.46
74716;BME280;63234;37.558;127.058;2023-07-29T11:20:07;99573.69;;;23.25;61.82
74716;BME280;63234;37.558;127.058;2023-07-29T11:22:34;99580.38;;;23.28;61.20
74716;BME280;63234;37.558;127.058;2023-07-29T11:25:00;99582.78;;;23.38;61.52
74716;BME280;63234;37.558;127.058;2023-07-29T11:27:26;99584.53;;;23.34;61.20
74716;BME280;63234;37.558;127.058;2023-07-29T11:30:00;99581.16;;;23.37;60.76
74716;BME280;63234;37.558;127.058;2023-07-29T11:32:26;99580.38;;;23.45;60.03
74716;BME280;63234;37.558;127.058;2023-07-29T11:34:52;99578.59;;;23.58;59.66
74716;BME280;63234;37.558;127.058;2023-07-29T11:37:19;99560.59;;;23.53;59.49
74716;BME280;63234;37.558;127.058;2023-07-29T11:39:47;99562.03;;;23.42;59.67
74716;BME280;63234;37.558;127.058;2023-07-29T11:42:14;99571.94;;;23.55;58.58
74716;BME280;63234;37.558;127.058;2023-07-29T11:44:41;99564.41;;;23.70;58.68
74716;BME280;63234;37.558;127.058;2023-07-29T11:47:11;99559.16;;;23.47;58.95
74716;BME280;63234;37.558;127.058;2023-07-29T11:49:41;99562.31;;;23.49;59.93
74716;BME280;63234;37.558;127.058;2023-07-29T11:52:08;99561.38;;;23.28;60.03
74716;BME280;63234;37.558;127.058;2023-07-29T11:54:38;99556.59;;;23.42;60.99
74716;BME280;63234;37.558;127.058;2023-07-29T11:57:08;99558.81;;;23.57;61.19
74716;BME280;63234;37.558;127.058;2023-07-29T11:59:36;99555.66;;;23.47;62.41
74716;BME280;63234;37.558;127.058;2023-07-29T12:02:10;99556.09;;;23.49;61.81
74716;BME280;63234;37.558;127.058;2023-07-29T12:04:37;99548.75;;;23.75;61.28
74716;BME280;63234;37.558;127.058;2023-07-29T12:07:04;99556.13;;;23.75;60.49
74716;BME280;63234;37.558;127.058;2023-07-29T12:09:30;99557.16;;;24.00;59.78
74716;BME280;63234;37.558;127.058;2023-07-29T12:11:57;99562.28;;;24.01;58.82
74716;BME280;63234;37.558;127.058;2023-07-29T12:14:28;99562.47;;;23.88;58.38
74716;BME280;63234;37.558;127.058;2023-07-29T12:16:55;99564.38;;;23.96;58.61
74716;BME280;63234;37.558;127.058;2023-07-29T12:19:21;99554.91;;;24.11;58.75
74716;BME280;63234;37.558;127.058;2023-07-29T12:21:50;99549.84;;;24.30;58.67
74716;BME280;63234;37.558;127.058;2023-07-29T12:24:17;99555.91;;;24.36;56.31
74716;BME280;63234;37.558;127.058;2023-07-29T12:26:44;99550.13;;;24.37;56.16
74716;BME280;63234;37.558;127.058;2023-07-29T12:29:18;99540.63;;;24.22;55.71
74716;BME280;63234;37.558;127.058;2023-07-29T12:31:49;99548.72;;;24.31;56.13
74716;BME280;63234;37.558;127.058;2023-07-29T12:34:25;99540.69;;;24.05;56.15
74716;BME280;63234;37.558;127.058;2023-07-29T12:36:52;99547.69;;;24.15;56.11
74716;BME280;63234;37.558;127.058;2023-07-29T12:39:25;99553.13;;;24.15;56.60
74716;BME280;63234;37.558;127.058;2023-07-29T12:41:53;99546.53;;;24.16;56.52
74716;BME280;63234;37.558;127.058;2023-07-29T12:44:30;99536.00;;;24.23;56.11
74716;BME280;63234;37.558;127.058;2023-07-29T12:46:56;99520.41;;;24.41;55.93
74716;BME280;63234;37.558;127.058;2023-07-29T12:49:22;99512.47;;;24.27;53.93
74716;BME280;63234;37.558;127.058;2023-07-29T12:51:48;99516.72;;;24.45;55.16
74716;BME280;63234;37.558;127.058;2023-07-29T12:54:15;99515.16;;;24.36;53.80
74716;BME280;63234;37.558;127.058;2023-07-29T12:56:41;99520.34;;;24.20;54.75
74716;BME280;63234;37.558;127.058;2023-07-29T12:59:07;99503.81;;;24.34;54.14
74716;BME280;63234;37.558;127.058;2023-07-29T13:01:34;99512.00;;;24.25;55.21
74716;BME280;63234;37.558;127.058;2023-07-29T13:04:00;99503.38;;;24.23;54.39